createdAt,value
2022-12-15T00:05:00.317Z,-9.70
2022-12-15T00:11:21.277Z,-9.80
2022-12-15T00:17:41.546Z,-9.80
2022-12-15T00:24:01.782Z,-9.80
2022-12-15T00:30:24.325Z,-10.00
2022-12-15T00:36:44.740Z,-10.00
2022-12-15T00:42:51.682Z,-10.00
2022-12-15T00:48:53.992Z,-10.10
2022-12-15T00:55:14.772Z,-10.10
2022-12-15T01:01:35.171Z,-10.10
2022-12-15T01:07:55.568Z,-10.10
2022-12-15T01:14:15.869Z,-10.20
2022-12-15T01:20:20.737Z,-10.30
2022-12-15T01:26:22.925Z,-10.30
2022-12-15T01:32:24.978Z,-10.30
2022-12-15T01:38:27.713Z,-10.40
2022-12-15T01:44:29.550Z,-10.40
2022-12-15T01:50:35.975Z,-10.50
2022-12-15T01:56:43.492Z,-10.60
2022-12-15T02:02:45.680Z,-10.70
2022-12-15T02:08:50.238Z,-10.80
2022-12-15T02:15:11.013Z,-10.80
2022-12-15T02:21:21.959Z,-10.80
2022-12-15T02:28:01.410Z,-10.70
2022-12-15T02:34:14.407Z,-10.80
2022-12-15T02:40:16.273Z,-10.80
2022-12-15T02:46:31.173Z,-10.90
2022-12-15T02:52:56.127Z,-11.00
2022-12-15T02:59:25.551Z,-11.10
2022-12-15T03:05:28.178Z,-11.10
2022-12-15T03:11:30.983Z,-11.10
2022-12-15T03:17:32.809Z,-11.10
2022-12-15T03:23:34.660Z,-11.00
2022-12-15T03:29:36.581Z,-11.00
2022-12-15T03:35:38.501Z,-10.90
2022-12-15T03:41:41.639Z,-10.90
2022-12-15T03:47:44.297Z,-10.90
2022-12-15T03:53:48.032Z,-10.90
2022-12-15T03:59:50.086Z,-11.00
2022-12-15T04:05:52.003Z,-11.00
2022-12-15T04:11:53.808Z,-11.00
2022-12-15T04:17:56.367Z,-11.00
2022-12-15T04:24:16.749Z,-11.00
2022-12-15T04:30:37.641Z,-11.00
2022-12-15T04:37:00.187Z,-11.00
2022-12-15T04:43:20.853Z,-11.00
2022-12-15T04:49:41.448Z,-10.90
2022-12-15T04:56:01.848Z,-10.90
2022-12-15T05:02:22.386Z,-11.00
2022-12-15T05:08:42.964Z,-11.00
2022-12-15T05:15:03.442Z,-10.90
2022-12-15T05:21:24.348Z,-10.90
2022-12-15T05:34:11.257Z,-11.00
2022-12-15T05:40:13.196Z,-10.90
2022-12-15T05:46:15.469Z,-10.80
2022-12-15T05:52:17.589Z,-10.90
2022-12-15T05:58:19.408Z,-10.90
2022-12-15T06:04:21.293Z,-10.90
2022-12-15T06:10:23.124Z,-10.90
2022-12-15T06:16:27.976Z,-10.90
2022-12-15T06:22:29.982Z,-11.00
2022-12-15T06:28:31.830Z,-10.90
2022-12-15T06:34:33.633Z,-10.80
2022-12-15T06:40:38.172Z,-10.80
2022-12-15T06:46:40.263Z,-10.80
2022-12-15T06:52:42.131Z,-10.80
2022-12-15T06:58:43.954Z,-10.80
2022-12-15T07:04:45.959Z,-10.70
2022-12-15T07:10:47.867Z,-10.70
2022-12-15T07:16:49.674Z,-10.70
2022-12-15T07:22:52.283Z,-10.70
2022-12-15T07:28:54.686Z,-10.70
2022-12-15T07:34:56.563Z,-10.70
2022-12-15T07:41:03.452Z,-10.60
2022-12-15T07:47:05.550Z,-10.50
2022-12-15T07:53:07.533Z,-10.50
2022-12-15T07:59:09.981Z,-10.40
2022-12-15T08:05:11.852Z,-10.30
2022-12-15T08:11:15.295Z,-10.20
2022-12-15T08:17:17.167Z,-10.10
2022-12-15T08:23:19.055Z,-9.90
2022-12-15T08:35:56.413Z,-9.80
2022-12-15T08:41:58.996Z,-9.70
2022-12-15T08:48:01.129Z,-9.50
2022-12-15T08:54:03.113Z,-9.40
2022-12-15T09:00:05.811Z,-9.30
2022-12-15T09:06:13.205Z,-9.20
2022-12-15T09:12:15.155Z,-9.00
2022-12-15T09:18:17.010Z,-8.80
2022-12-15T09:24:28.758Z,-8.60
2022-12-15T09:30:36.290Z,-8.30
2022-12-15T09:36:38.215Z,-7.90
2022-12-15T09:42:40.121Z,-7.50
2022-12-15T09:48:45.196Z,-7.10
2022-12-15T09:54:47.318Z,-6.80
2022-12-15T10:00:56.240Z,-6.50
2022-12-15T10:07:22.303Z,-6.10
2022-12-15T10:13:45.710Z,-5.70
2022-12-15T10:19:58.301Z,-5.30
2022-12-15T10:26:25.696Z,-4.80
2022-12-15T10:32:37.953Z,-4.50
2022-12-15T10:38:50.545Z,-4.20
2022-12-15T10:44:58.485Z,-3.90
2022-12-15T10:51:20.498Z,-3.60
2022-12-15T10:57:31.747Z,-3.30
2022-12-15T11:03:38.720Z,-3.10
2022-12-15T11:09:41.485Z,-3.00
2022-12-15T11:15:54.968Z,-2.80
2022-12-15T11:22:02.902Z,-2.70
2022-12-15T11:28:20.446Z,-2.50
2022-12-15T11:34:36.358Z,-2.30
2022-12-15T11:40:43.188Z,-2.20
2022-12-15T11:46:53.317Z,-2.20
2022-12-15T11:53:19.682Z,-2.10
2022-12-15T11:59:46.466Z,-2.10
2022-12-15T12:06:19.483Z,-2.10
2022-12-15T12:12:32.466Z,-2.00
2022-12-15T12:18:43.046Z,-2.00
2022-12-15T12:24:51.035Z,-2.00
2022-12-15T12:30:56.650Z,-1.90
2022-12-15T12:37:13.850Z,-1.90
2022-12-15T12:43:26.060Z,-1.80
2022-12-15T12:49:38.338Z,-1.70
2022-12-15T12:55:42.411Z,-1.50
2022-12-15T13:01:44.309Z,-1.40
2022-12-15T13:08:13.548Z,-1.40
2022-12-15T13:14:31.948Z,-1.30
2022-12-15T13:20:38.305Z,-1.20
2022-12-15T13:26:44.946Z,-1.40
2022-12-15T13:33:16.497Z,-1.40
2022-12-15T13:39:18.238Z,-1.50
2022-12-15T13:45:50.657Z,-1.60
2022-12-15T13:52:00.720Z,-1.70
2022-12-15T13:58:16.036Z,-2.00
2022-12-15T14:04:18.826Z,-2.10
2022-12-15T14:10:29.803Z,-2.20
2022-12-15T14:16:34.550Z,-2.20
2022-12-15T14:22:36.389Z,-2.50
2022-12-15T14:28:41.205Z,-2.80
2022-12-15T14:34:44.959Z,-3.00
2022-12-15T14:40:56.616Z,-3.30
2022-12-15T14:47:00.169Z,-3.50
2022-12-15T14:53:16.838Z,-3.70
2022-12-15T14:59:20.513Z,-3.90
2022-12-15T15:05:27.736Z,-4.20
2022-12-15T15:11:35.316Z,-4.50
2022-12-15T15:17:38.476Z,-4.70
2022-12-15T15:23:40.698Z,-4.90
2022-12-15T15:29:42.556Z,-5.00
2022-12-15T15:35:47.731Z,-5.30
2022-12-15T15:41:49.704Z,-5.50
2022-12-15T15:47:56.167Z,-5.70
2022-12-15T15:54:01.401Z,-5.90
2022-12-15T16:00:13.697Z,-6.00
2022-12-15T16:06:21.185Z,-6.10
2022-12-15T16:12:30.243Z,-6.20
2022-12-15T16:18:32.827Z,-6.30
2022-12-15T16:24:34.909Z,-6.40
2022-12-15T16:30:36.750Z,-6.50
2022-12-15T16:36:39.992Z,-6.60
2022-12-15T16:42:41.919Z,-6.80
2022-12-15T16:48:48.096Z,-6.90
2022-12-15T16:54:53.449Z,-7.00
2022-12-15T17:00:59.168Z,-7.00
2022-12-15T17:07:02.894Z,-7.10
2022-12-15T17:13:37.811Z,-7.30
2022-12-15T17:20:19.843Z,-7.20
2022-12-15T17:26:29.892Z,-7.30
2022-12-15T17:32:32.040Z,-7.40
2022-12-15T17:38:34.031Z,-7.40
2022-12-15T17:44:37.920Z,-7.50
2022-12-15T17:50:40.411Z,-7.70
2022-12-15T17:56:44.572Z,-7.80
2022-12-15T18:02:46.595Z,-7.80
2022-12-15T18:08:48.602Z,-7.80
2022-12-15T18:14:50.907Z,-7.80
2022-12-15T18:21:00.264Z,-7.90
2022-12-15T18:27:02.159Z,-7.90
2022-12-15T18:33:04.099Z,-7.90
2022-12-15T18:39:23.169Z,-7.90
2022-12-15T18:45:28.259Z,-8.00
2022-12-15T18:51:31.019Z,-8.10
2022-12-15T18:57:37.821Z,-8.30
2022-12-15T19:03:41.038Z,-8.30
2022-12-15T19:09:43.014Z,-8.40
2022-12-15T19:15:45.585Z,-8.40
2022-12-15T19:21:48.390Z,-8.50
2022-12-15T19:27:50.232Z,-8.50
2022-12-15T19:33:52.212Z,-8.50
2022-12-15T19:39:56.430Z,-8.60
2022-12-15T19:45:58.299Z,-8.70
2022-12-15T19:52:00.165Z,-8.80
2022-12-15T19:58:27.814Z,-8.90
2022-12-15T20:04:32.115Z,-9.00
2022-12-15T20:10:33.933Z,-9.00
2022-12-15T20:16:35.756Z,-9.10
2022-12-15T20:22:37.635Z,-9.00
2022-12-15T20:28:39.466Z,-9.00
2022-12-15T20:34:41.658Z,-9.00
2022-12-15T20:40:43.544Z,-9.00
2022-12-15T20:46:45.682Z,-9.10
2022-12-15T20:52:47.532Z,-9.20
2022-12-15T20:58:53.848Z,-9.20
2022-12-15T21:04:55.825Z,-9.20
2022-12-15T21:11:02.153Z,-9.30
2022-12-15T21:17:04.082Z,-9.30
2022-12-15T21:23:06.402Z,-9.40
2022-12-15T21:29:14.017Z,-9.40
2022-12-15T21:35:17.388Z,-9.40
2022-12-15T21:41:22.094Z,-9.50
2022-12-15T21:47:49.977Z,-9.50
2022-12-15T21:53:53.925Z,-9.60
2022-12-15T21:59:55.763Z,-9.50
2022-12-15T22:05:57.558Z,-9.60
2022-12-15T22:11:59.487Z,-9.60
2022-12-15T22:18:01.546Z,-9.70
2022-12-15T22:24:03.494Z,-9.80
2022-12-15T22:30:13.590Z,-9.80
2022-12-15T22:36:15.534Z,-9.80
2022-12-15T22:42:17.538Z,-9.80
2022-12-15T22:48:20.676Z,-9.90
2022-12-15T22:54:28.880Z,-9.90
2022-12-15T23:00:30.675Z,-10.00
2022-12-15T23:06:32.600Z,-10.00
2022-12-15T23:12:34.371Z,-10.10
2022-12-15T23:18:36.469Z,-10.10
2022-12-15T23:24:39.010Z,-10.10
2022-12-15T23:30:40.889Z,-10.10
2022-12-15T23:36:42.707Z,-10.10
2022-12-15T23:42:44.503Z,-10.10
2022-12-15T23:48:46.965Z,-10.20
2022-12-15T23:54:48.758Z,-10.10
